Time;durP1;ratioP1;P1;durP2;ratioP2;P2;SDS_P1;SDS_P2;PMS_P1;PMS_P2;Temp;Humidity;BMP_temperature;BMP_pressure;BME280_temperature;BME280_humidity;BME280_pressure;Samples;Min_cycle;Max_cycle;Signal;HPM_P1;HPM_P2
2022/03/28 00:01:42;;;;;;;10.80;9.70;;;10.50;79.30;;;;;;6007619;23;20304;-80
2022/03/28 00:04:09;;;;;;;10.00;9.02;;;10.40;79.60;;;;;;6003667;23;20198;-81
2022/03/28 00:06:37;;;;;;;13.45;10.32;;;10.40;80.00;;;;;;6001875;23;20190;-81
2022/03/28 00:09:05;;;;;;;13.18;10.07;;;10.30;80.70;;;;;;6002019;23;20669;-81
2022/03/28 00:11:33;;;;;;;11.90;10.13;;;10.20;81.20;;;;;;6001916;23;20300;-80
2022/03/28 00:14:00;;;;;;;9.98;8.98;;;10.20;82.00;;;;;;6001902;23;20193;-81
2022/03/28 00:16:27;;;;;;;11.50;9.55;;;10.00;82.70;;;;;;6004576;23;20193;-81
2022/03/28 00:18:54;;;;;;;12.75;10.55;;;9.90;84.60;;;;;;6002404;23;20215;-81
2022/03/28 00:21:21;;;;;;;12.85;9.50;;;9.80;85.30;;;;;;6001411;23;20309;-81
2022/03/28 00:23:49;;;;;;;11.30;10.18;;;9.70;86.20;;;;;;6000738;23;20275;-81
2022/03/28 00:26:16;;;;;;;11.55;9.80;;;9.60;87.10;;;;;;6000383;23;20192;-81
2022/03/28 00:28:43;;;;;;;12.00;10.13;;;9.60;87.80;;;;;;6001643;23;20283;-81
2022/03/28 00:31:10;;;;;;;11.25;9.30;;;9.60;88.10;;;;;;6006000;23;20282;-80
2022/03/28 00:33:37;;;;;;;12.10;9.05;;;9.50;88.60;;;;;;6001981;23;20216;-81
2022/03/28 00:36:05;;;;;;;12.45;10.68;;;9.50;89.60;;;;;;6003208;23;20671;-81
2022/03/28 00:38:32;;;;;;;14.60;10.52;;;9.40;89.70;;;;;;5991822;23;20202;-81
2022/03/28 00:41:00;;;;;;;12.38;9.85;;;9.40;89.80;;;;;;6003847;23;20263;-81
2022/03/28 00:43:27;;;;;;;14.30;11.32;;;9.40;90.00;;;;;;6002785;23;20192;-81
2022/03/28 00:45:54;;;;;;;11.65;9.40;;;9.30;90.00;;;;;;6003289;23;20282;-81
2022/03/28 00:48:21;;;;;;;16.10;10.80;;;9.30;90.20;;;;;;6003161;23;20221;-82
2022/03/28 00:50:48;;;;;;;11.90;9.95;;;9.30;90.20;;;;;;6004065;23;20206;-80
2022/03/28 00:53:16;;;;;;;14.80;10.30;;;9.30;90.30;;;;;;6000773;23;20295;-80
2022/03/28 00:55:43;;;;;;;14.48;10.13;;;9.30;90.20;;;;;;6007120;23;20641;-80
2022/03/28 00:58:11;;;;;;;14.95;10.57;;;9.30;90.20;;;;;;6002193;23;20663;-80
2022/03/28 01:00:38;;;;;;;12.65;10.55;;;9.30;90.10;;;;;;6003277;23;20216;-80
2022/03/28 01:03:05;;;;;;;10.75;9.68;;;9.20;90.10;;;;;;6003303;23;20625;-80
2022/03/28 01:05:32;;;;;;;13.25;10.00;;;9.30;90.00;;;;;;6007483;23;20280;-80
2022/03/28 01:08:00;;;;;;;11.60;9.50;;;9.20;90.00;;;;;;6002108;23;20560;-80
2022/03/28 01:10:29;;;;;;;12.82;9.95;;;9.20;90.10;;;;;;5995952;23;20196;-80
2022/03/28 01:12:58;;;;;;;14.15;10.48;;;9.20;90.30;;;;;;6002142;23;20267;-80
2022/03/28 01:15:26;;;;;;;12.70;10.57;;;9.20;90.50;;;;;;6002991;23;20192;-80
2022/03/28 01:18:11;;;;;;;12.45;10.48;;;9.10;90.50;;;;;;6006049;23;20242;-80
2022/03/28 01:20:40;;;;;;;15.52;10.30;;;9.00;90.70;;;;;;6001313;23;20659;-80
2022/03/28 01:23:10;;;;;;;12.93;9.65;;;8.90;90.90;;;;;;6002901;23;20218;-80
2022/03/28 01:25:37;;;;;;;13.77;9.95;;;8.90;91.00;;;;;;5985344;23;20250;-80
2022/03/28 01:28:05;;;;;;;16.17;9.95;;;8.90;91.20;;;;;;5999507;23;20278;-80
2022/03/28 01:30:33;;;;;;;11.70;10.38;;;8.80;91.30;;;;;;6002922;23;20614;-80
2022/03/28 01:33:00;;;;;;;15.50;10.30;;;8.80;91.50;;;;;;5993148;23;20686;-80
2022/03/28 01:35:30;;;;;;;11.32;10.00;;;8.80;91.60;;;;;;6002379;23;20220;-80
2022/03/28 01:37:57;;;;;;;11.05;9.50;;;8.70;91.80;;;;;;6004105;23;20298;-80
2022/03/28 01:40:26;;;;;;;12.00;9.38;;;8.70;92.00;;;;;;6004470;23;20230;-80
2022/03/28 01:42:53;;;;;;;11.65;10.27;;;8.70;92.20;;;;;;6002993;23;20234;-80
2022/03/28 01:45:20;;;;;;;11.35;9.15;;;8.60;92.40;;;;;;6002265;23;20542;-80
2022/03/28 01:47:47;;;;;;;13.52;10.18;;;8.60;92.50;;;;;;6002683;23;20578;-80
2022/03/28 01:50:15;;;;;;;13.90;10.38;;;8.50;92.60;;;;;;6010964;23;20276;-82
2022/03/28 01:52:42;;;;;;;12.52;10.45;;;8.50;92.80;;;;;;6002909;23;20574;-80
2022/03/28 01:55:10;;;;;;;14.23;10.20;;;8.40;92.90;;;;;;6001209;23;20197;-80
2022/03/28 01:57:40;;;;;;;14.50;10.35;;;8.40;93.10;;;;;;6000802;23;20609;-81
2022/03/28 02:00:09;;;;;;;14.55;10.43;;;8.30;93.30;;;;;;6001416;23;20412;-80
2022/03/28 02:02:36;;;;;;;13.65;10.50;;;8.30;93.60;;;;;;6002819;23;20731;-81
2022/03/28 02:05:04;;;;;;;12.32;9.73;;;8.20;93.80;;;;;;6002076;23;20275;-80
2022/03/28 02:07:31;;;;;;;13.57;10.50;;;8.20;93.90;;;;;;6001553;23;20802;-80
2022/03/28 02:09:58;;;;;;;12.88;10.38;;;8.10;94.20;;;;;;6003106;23;20716;-80
2022/03/28 02:12:25;;;;;;;11.60;10.07;;;8.10;94.50;;;;;;6000786;23;20697;-79
2022/03/28 02:14:54;;;;;;;13.55;11.20;;;8.00;94.80;;;;;;6000793;23;20305;-80
2022/03/28 02:17:21;;;;;;;13.00;10.52;;;7.90;95.20;;;;;;6000926;23;20198;-80
2022/03/28 02:19:48;;;;;;;17.30;11.45;;;7.80;95.40;;;;;;6003789;23;20931;-80
2022/03/28 02:22:15;;;;;;;15.82;12.02;;;7.80;95.70;;;;;;6004037;23;20666;-80
2022/03/28 02:24:42;;;;;;;15.45;11.45;;;7.70;95.90;;;;;;6004842;23;20681;-80
2022/03/28 02:27:09;;;;;;;14.02;11.02;;;7.70;96.20;;;;;;6005126;23;20232;-80
2022/03/28 02:29:36;;;;;;;13.95;10.93;;;7.60;96.50;;;;;;6003087;23;20190;-80
2022/03/28 02:32:05;;;;;;;16.23;10.75;;;7.60;96.80;;;;;;6006621;23;20685;-80
2022/03/28 02:34:32;;;;;;;14.57;11.18;;;7.50;97.00;;;;;;6002947;23;20240;-80
2022/03/28 02:36:59;;;;;;;15.38;10.55;;;7.40;97.20;;;;;;6004613;23;20204;-80
2022/03/28 02:39:26;;;;;;;13.48;10.90;;;7.40;97.30;;;;;;6003520;23;20208;-80
2022/03/28 02:41:53;;;;;;;15.73;10.55;;;7.30;97.40;;;;;;6005106;23;20379;-80
2022/03/28 02:44:20;;;;;;;12.73;11.32;;;7.30;97.50;;;;;;6005504;23;20199;-80
2022/03/28 02:46:47;;;;;;;13.80;9.88;;;7.30;97.50;;;;;;6005786;23;20196;-80
2022/03/28 02:49:18;;;;;;;12.07;10.27;;;7.30;97.50;;;;;;6003262;23;20194;-80
2022/03/28 02:51:45;;;;;;;13.23;10.80;;;7.30;97.50;;;;;;6014540;23;20213;-80
2022/03/28 02:54:12;;;;;;;14.90;11.00;;;7.30;97.50;;;;;;6018516;23;20194;-79
2022/03/28 02:56:39;;;;;;;11.93;10.63;;;7.30;97.50;;;;;;6003048;23;20275;-80
2022/03/28 02:59:06;;;;;;;14.93;10.90;;;7.30;97.90;;;;;;6003937;23;20273;-80
2022/03/28 03:01:33;;;;;;;13.25;9.55;;;7.20;97.60;;;;;;6003447;23;20296;-81
2022/03/28 03:04:00;;;;;;;13.90;10.18;;;7.20;97.50;;;;;;6001877;23;20197;-80
2022/03/28 03:06:28;;;;;;;12.20;10.98;;;7.20;97.50;;;;;;6002833;23;20194;-80
2022/03/28 03:08:56;;;;;;;14.13;10.05;;;7.20;97.50;;;;;;6005329;23;20194;-80
2022/03/28 03:11:23;;;;;;;13.02;11.02;;;7.20;97.50;;;;;;6005563;23;20547;-80
2022/03/28 03:13:50;;;;;;;17.20;11.00;;;7.10;97.80;;;;;;6006760;23;20645;-80
2022/03/28 03:16:17;;;;;;;13.48;11.18;;;7.10;98.00;;;;;;6003354;23;20604;-80
2022/03/28 03:18:44;;;;;;;13.02;10.20;;;7.00;98.20;;;;;;6006900;23;20256;-79
2022/03/28 03:21:11;;;;;;;12.95;11.35;;;7.00;98.50;;;;;;6001213;23;20603;-79
2022/03/28 03:23:40;;;;;;;17.25;11.48;;;7.00;98.70;;;;;;6005643;23;20230;-80
2022/03/28 03:26:07;;;;;;;15.20;11.23;;;7.00;99.00;;;;;;5998061;23;20208;-80
2022/03/28 03:28:33;;;;;;;14.48;11.52;;;6.90;99.20;;;;;;6003900;23;20269;-82
2022/03/28 03:31:00;;;;;;;13.10;10.82;;;6.80;99.40;;;;;;6004218;23;20724;-80
2022/03/28 03:33:27;;;;;;;13.95;11.27;;;6.70;99.60;;;;;;6005788;23;20293;-80
2022/03/28 03:35:54;;;;;;;13.02;10.80;;;6.70;99.70;;;;;;6002351;23;20194;-79
2022/03/28 03:38:21;;;;;;;15.38;11.32;;;6.60;99.80;;;;;;6003168;23;20190;-80
2022/03/28 03:40:50;;;;;;;12.52;10.38;;;6.60;99.90;;;;;;6001934;23;20214;-80
2022/03/28 03:43:16;;;;;;;11.70;10.20;;;6.50;99.90;;;;;;6001929;23;20302;-82
2022/03/28 03:45:43;;;;;;;15.32;11.05;;;6.50;99.90;;;;;;6001621;23;20232;-80
2022/03/28 03:48:10;;;;;;;13.40;10.55;;;6.50;99.90;;;;;;5998119;23;20220;-80
2022/03/28 03:50:37;;;;;;;13.55;10.68;;;6.50;99.90;;;;;;5998929;23;20182;-80
2022/03/28 03:53:04;;;;;;;14.65;10.48;;;6.50;99.90;;;;;;5998454;23;20273;-80
2022/03/28 03:55:31;;;;;;;12.63;10.13;;;6.40;99.90;;;;;;6001474;23;20668;-80
2022/03/28 03:57:59;;;;;;;13.95;10.02;;;6.40;99.90;;;;;;6002381;23;20553;-80
2022/03/28 04:00:26;;;;;;;14.35;10.38;;;6.40;99.90;;;;;;6004823;23;21422;-81
2022/03/28 04:02:53;;;;;;;13.75;10.60;;;6.40;99.90;;;;;;6007685;23;20304;-81
2022/03/28 04:05:20;;;;;;;12.32;10.95;;;6.40;99.90;;;;;;5994367;23;20257;-81
2022/03/28 04:07:47;;;;;;;13.70;9.93;;;6.40;99.90;;;;;;6000518;23;20717;-81
2022/03/28 04:10:14;;;;;;;12.57;10.68;;;6.30;99.90;;;;;;6002778;23;20194;-81
2022/03/28 04:12:41;;;;;;;12.55;9.88;;;6.30;99.90;;;;;;5999809;23;20214;-80
2022/03/28 04:15:10;;;;;;;13.38;10.63;;;6.20;99.90;;;;;;5998893;23;20197;-81
2022/03/28 04:17:42;;;;;;;13.88;10.23;;;6.20;99.90;;;;;;6002357;23;20194;-83
2022/03/28 04:20:10;;;;;;;13.88;9.50;;;6.20;99.90;;;;;;6001272;23;20198;-81
2022/03/28 04:22:39;;;;;;;14.48;10.95;;;6.20;99.90;;;;;;5999380;23;20658;-81
2022/03/28 04:25:08;;;;;;;14.52;10.27;;;6.20;99.90;;;;;;6000351;23;20209;-81
2022/03/28 04:27:36;;;;;;;12.65;9.70;;;6.20;99.90;;;;;;5983008;23;20753;-81
2022/03/28 04:30:04;;;;;;;12.52;9.98;;;6.10;99.90;;;;;;6002092;23;20198;-82
2022/03/28 04:32:32;;;;;;;12.82;10.45;;;6.10;99.90;;;;;;6004213;23;20570;-82
2022/03/28 04:34:59;;;;;;;13.25;10.55;;;6.10;99.90;;;;;;5990863;23;20281;-81
2022/03/28 04:37:26;;;;;;;12.73;9.70;;;6.10;99.90;;;;;;5998662;23;20676;-80
2022/03/28 04:39:53;;;;;;;15.05;10.40;;;6.00;99.90;;;;;;6001369;23;20198;-81
2022/03/28 04:42:20;;;;;;;14.45;10.75;;;6.00;99.90;;;;;;5978808;23;20221;-81
2022/03/28 04:44:47;;;;;;;12.98;9.93;;;6.00;99.90;;;;;;5994194;23;20272;-82
2022/03/28 04:47:14;;;;;;;12.82;9.90;;;6.00;99.90;;;;;;5997745;23;20266;-82
2022/03/28 04:49:43;;;;;;;14.70;10.48;;;6.00;99.90;;;;;;5994952;23;20189;-87
2022/03/28 04:52:10;;;;;;;16.30;9.75;;;6.00;99.90;;;;;;5995642;23;20218;-87
2022/03/28 04:54:37;;;;;;;13.23;10.68;;;6.00;99.90;;;;;;5992846;23;20190;-89
2022/03/28 04:57:05;;;;;;;13.23;10.20;;;5.90;99.90;;;;;;5991912;23;20182;-86
2022/03/28 04:59:32;;;;;;;11.70;9.75;;;5.90;99.90;;;;;;5997296;23;20277;-92
2022/03/28 05:01:59;;;;;;;12.75;10.00;;;5.90;99.90;;;;;;5997618;23;20245;-86
2022/03/28 05:04:27;;;;;;;17.52;11.02;;;5.90;99.90;;;;;;5998496;23;20285;-85
2022/03/28 05:06:55;;;;;;;18.27;9.85;;;5.90;99.90;;;;;;5995594;23;20205;-85
2022/03/28 05:09:22;;;;;;;12.20;9.57;;;5.90;99.90;;;;;;6003215;23;20182;-85
2022/03/28 05:11:49;;;;;;;12.18;8.70;;;5.90;99.90;;;;;;6001819;23;20672;-86
2022/03/28 05:14:18;;;;;;;12.68;10.18;;;5.90;99.90;;;;;;5999818;23;20233;-86
2022/03/28 05:16:45;;;;;;;11.93;9.38;;;5.90;99.90;;;;;;5997486;23;20186;-85
2022/03/28 05:19:12;;;;;;;17.98;10.13;;;5.80;99.90;;;;;;5998694;23;20269;-87
2022/03/28 05:21:39;;;;;;;14.68;9.60;;;5.80;99.90;;;;;;5997065;23;21202;-86
2022/03/28 05:24:07;;;;;;;13.23;9.65;;;5.80;99.90;;;;;;5999660;23;20228;-86
2022/03/28 05:26:35;;;;;;;15.27;10.80;;;5.80;99.90;;;;;;5989059;23;20194;-86
2022/03/28 05:29:02;;;;;;;11.15;9.00;;;5.80;99.90;;;;;;5995122;23;20201;-86
2022/03/28 05:31:29;;;;;;;12.38;9.57;;;5.80;99.90;;;;;;5995169;23;20206;-86
2022/03/28 05:33:56;;;;;;;17.42;9.55;;;5.80;99.90;;;;;;5997523;23;20236;-85
2022/03/28 05:36:23;;;;;;;10.85;9.40;;;5.80;99.90;;;;;;6002119;23;20678;-84
2022/03/28 05:38:50;;;;;;;11.68;9.30;;;5.70;99.90;;;;;;6001830;23;20265;-85
2022/03/28 05:41:19;;;;;;;16.33;10.10;;;5.70;99.90;;;;;;5998791;23;20248;-86
2022/03/28 05:43:46;;;;;;;16.38;10.60;;;5.70;99.90;;;;;;6002399;23;20221;-85
2022/03/28 05:46:13;;;;;;;14.98;10.00;;;5.70;99.90;;;;;;6011856;23;20190;-86
2022/03/28 05:48:40;;;;;;;13.55;10.52;;;5.70;99.90;;;;;;6018585;23;20186;-86
2022/03/28 05:51:07;;;;;;;12.05;9.40;;;5.70;99.90;;;;;;5998471;23;20211;-86
2022/03/28 05:53:34;;;;;;;14.15;10.63;;;5.70;99.90;;;;;;6003003;23;20228;-86
2022/03/28 05:56:03;;;;;;;11.55;9.95;;;5.70;99.90;;;;;;5987949;23;20273;-86
2022/03/28 05:58:33;;;;;;;13.30;10.00;;;5.70;99.90;;;;;;6001923;23;20190;-87
2022/03/28 06:01:00;;;;;;;13.43;10.20;;;5.80;99.90;;;;;;5997364;23;20202;-86
2022/03/28 06:03:27;;;;;;;14.80;10.23;;;5.90;99.90;;;;;;6002100;23;20245;-85
2022/03/28 06:05:54;;;;;;;12.57;9.82;;;5.90;99.90;;;;;;5998700;23;21423;-85
2022/03/28 06:08:21;;;;;;;14.35;9.90;;;5.90;99.90;;;;;;5998468;23;20197;-86
2022/03/28 06:10:48;;;;;;;12.50;9.00;;;6.00;99.90;;;;;;5999980;23;20202;-85
2022/03/28 06:13:16;;;;;;;12.88;10.00;;;6.10;99.90;;;;;;5995742;23;20194;-86
2022/03/28 06:15:45;;;;;;;14.07;10.15;;;6.20;99.90;;;;;;6000636;23;20197;-86
2022/03/28 06:18:11;;;;;;;10.82;9.45;;;6.30;99.90;;;;;;5998770;23;20650;-85
2022/03/28 06:20:38;;;;;;;12.52;9.30;;;6.40;99.90;;;;;;5992952;23;20709;-85
2022/03/28 06:23:09;;;;;;;14.07;10.60;;;6.60;99.40;;;;;;5999665;23;20213;-84
2022/03/28 06:25:37;;;;;;;11.65;10.05;;;6.90;98.60;;;;;;6001732;23;20240;-86
2022/03/28 06:28:04;;;;;;;12.80;9.52;;;7.20;97.80;;;;;;5999352;23;20185;-85
2022/03/28 06:30:31;;;;;;;14.73;11.00;;;7.50;96.80;;;;;;6000474;23;20289;-86
2022/03/28 06:32:59;;;;;;;13.65;10.00;;;7.90;96.10;;;;;;5997093;23;20190;-85
2022/03/28 06:35:27;;;;;;;13.55;9.80;;;8.20;95.10;;;;;;5999582;23;21954;-86
2022/03/28 06:37:54;;;;;;;12.57;9.82;;;8.40;94.40;;;;;;5995834;23;20281;-86
2022/03/28 06:40:22;;;;;;;18.55;10.75;;;8.70;94.00;;;;;;6000170;23;20237;-86
2022/03/28 06:42:49;;;;;;;14.18;10.30;;;8.80;93.30;;;;;;5995764;23;20211;-85
2022/03/28 06:45:16;;;;;;;19.90;10.70;;;9.00;93.10;;;;;;6000517;23;20199;-85
2022/03/28 06:47:43;;;;;;;15.98;10.95;;;9.20;92.60;;;;;;5998636;23;20207;-87
2022/03/28 06:50:12;;;;;;;12.05;9.48;;;9.50;91.80;;;;;;6007472;23;20238;-85
2022/03/28 06:52:40;;;;;;;13.23;9.50;;;9.80;91.30;;;;;;5991982;23;20193;-87
2022/03/28 06:55:07;;;;;;;12.48;10.15;;;10.00;89.00;;;;;;5996536;23;20246;-87
2022/03/28 06:57:35;;;;;;;12.38;10.05;;;10.10;88.20;;;;;;6003463;23;20197;-86
2022/03/28 07:00:02;;;;;;;13.70;10.45;;;10.10;88.10;;;;;;6009413;23;20279;-95
2022/03/28 07:02:30;;;;;;;17.00;11.70;;;10.30;88.10;;;;;;6005426;23;20694;-86
2022/03/28 07:04:57;;;;;;;13.70;11.50;;;10.60;86.80;;;;;;5999130;23;20248;-86
2022/03/28 07:07:25;;;;;;;14.20;11.02;;;10.80;85.70;;;;;;5985191;23;20193;-86
2022/03/28 07:09:55;;;;;;;16.17;10.68;;;11.10;85.00;;;;;;6000775;23;20228;-86
2022/03/28 07:12:23;;;;;;;12.10;10.45;;;11.30;83.50;;;;;;5993123;23;20186;-87
2022/03/28 07:14:50;;;;;;;14.63;11.27;;;11.60;82.80;;;;;;5997751;23;20703;-86
2022/03/28 07:17:19;;;;;;;17.23;11.68;;;11.90;81.10;;;;;;5999444;23;20182;-86
2022/03/28 07:19:46;;;;;;;15.77;10.27;;;12.20;79.70;;;;;;5997879;23;20528;-87
2022/03/28 07:22:14;;;;;;;16.35;12.70;;;12.50;78.00;;;;;;5990681;23;20566;-87
2022/03/28 07:24:42;;;;;;;13.13;10.25;;;12.80;76.60;;;;;;5998927;23;20261;-86
2022/03/28 07:27:09;;;;;;;12.88;11.57;;;13.10;75.50;;;;;;5992016;23;20214;-85
2022/03/28 07:29:36;;;;;;;16.25;12.60;;;13.40;73.20;;;;;;5997914;23;20904;-87
2022/03/28 07:32:04;;;;;;;13.88;10.50;;;13.50;72.60;;;;;;5999054;23;20612;-87
2022/03/28 07:34:32;;;;;;;19.15;10.77;;;13.70;72.60;;;;;;6001203;23;20187;-85
2022/03/28 07:37:02;;;;;;;15.97;12.00;;;14.20;70.60;;;;;;5998218;23;20214;-85
2022/03/28 07:39:29;;;;;;;12.90;11.45;;;14.50;69.00;;;;;;6000415;23;20459;-85
2022/03/28 07:41:58;;;;;;;13.97;11.50;;;14.80;68.20;;;;;;6002717;23;20808;-86
2022/03/28 07:44:25;;;;;;;14.20;11.10;;;15.30;66.50;;;;;;6003288;23;20472;-85
2022/03/28 07:46:52;;;;;;;17.43;11.53;;;15.80;64.70;;;;;;6001563;23;20955;-85
2022/03/28 07:49:23;;;;;;;15.83;11.10;;;16.10;63.40;;;;;;6002026;23;20936;-86
2022/03/28 07:51:50;;;;;;;15.77;12.10;;;16.30;61.60;;;;;;5993935;23;20457;-85
2022/03/28 07:54:17;;;;;;;14.63;11.53;;;16.50;61.40;;;;;;6002588;23;20449;-86
2022/03/28 07:56:45;;;;;;;14.90;11.70;;;16.80;60.30;;;;;;5998802;23;20520;-87
2022/03/28 07:59:13;;;;;;;13.87;11.83;;;16.90;59.80;;;;;;6004940;23;20453;-86
2022/03/28 08:01:40;;;;;;;13.40;12.00;;;17.10;59.10;;;;;;5996441;23;21038;-88
2022/03/28 08:04:08;;;;;;;15.20;11.87;;;17.40;58.10;;;;;;6003373;23;21042;-86
2022/03/28 08:06:35;;;;;;;16.10;11.50;;;17.60;57.00;;;;;;6000658;23;20445;-86
2022/03/28 08:09:02;;;;;;;14.77;12.43;;;17.70;56.40;;;;;;6004622;23;20536;-86
2022/03/28 08:11:30;;;;;;;13.57;11.70;;;17.90;55.70;;;;;;6000089;23;20539;-86
2022/03/28 08:13:57;;;;;;;13.90;12.37;;;17.80;56.20;;;;;;6001703;23;20478;-86
2022/03/28 08:16:25;;;;;;;16.27;12.50;;;18.10;55.80;;;;;;6001304;23;20441;-86
2022/03/28 08:18:52;;;;;;;13.03;11.73;;;18.70;55.10;;;;;;6002165;23;20444;-87
2022/03/28 08:21:19;;;;;;;14.20;12.70;;;19.20;54.40;;;;;;6000467;23;20492;-87
2022/03/28 08:23:45;;;;;;;14.20;11.63;;;19.80;52.60;;;;;;5998121;23;21086;-86
2022/03/28 08:26:12;;;;;;;15.50;12.50;;;20.20;52.00;;;;;;5994524;23;20581;-86
2022/03/28 08:28:40;;;;;;;16.67;13.37;;;20.50;51.30;;;;;;5998427;23;22167;-86
2022/03/28 08:31:07;;;;;;;13.27;11.97;;;20.80;50.20;;;;;;5990496;23;20524;-87
2022/03/28 08:33:35;;;;;;;14.83;13.20;;;21.00;49.90;;;;;;6001903;23;21020;-87
2022/03/28 08:36:02;;;;;;;14.93;12.57;;;21.20;49.20;;;;;;5981496;23;20473;-87
2022/03/28 08:38:31;;;;;;;14.30;12.40;;;21.50;49.20;;;;;;6005746;23;20478;-86
2022/03/28 08:41:00;;;;;;;13.63;12.23;;;22.00;48.20;;;;;;6021706;23;20504;-88
2022/03/28 08:43:34;;;;;;;14.70;12.90;;;22.30;47.70;;;;;;6026253;23;20450;-87
2022/03/28 08:46:04;;;;;;;14.40;12.90;;;22.70;47.30;;;;;;5990799;23;20564;-87
2022/03/28 08:48:37;;;;;;;13.33;11.90;;;23.20;46.80;;;;;;5992446;23;21023;-87
2022/03/28 08:51:05;;;;;;;15.23;13.60;;;23.50;45.40;;;;;;5999357;23;20501;-87
2022/03/28 08:53:32;;;;;;;14.23;12.87;;;23.80;44.90;;;;;;6002227;23;20492;-87
2022/03/28 08:55:59;;;;;;;16.07;14.30;;;23.80;44.30;;;;;;6004744;23;20441;-87
2022/03/28 08:58:26;;;;;;;15.73;14.03;;;24.20;44.20;;;;;;6005003;23;20447;-87
2022/03/28 09:00:53;;;;;;;13.27;11.87;;;24.30;44.50;;;;;;5996042;23;20494;-87
2022/03/28 09:03:20;;;;;;;14.13;12.73;;;24.50;44.50;;;;;;5999577;23;20476;-87
2022/03/28 09:05:50;;;;;;;14.00;12.50;;;24.80;42.70;;;;;;6002533;23;20498;-87
2022/03/28 09:08:17;;;;;;;16.27;14.57;;;25.00;41.70;;;;;;6004274;23;20476;-87
2022/03/28 09:10:48;;;;;;;13.23;11.90;;;25.20;42.20;;;;;;6000363;23;20963;-87
2022/03/28 09:13:17;;;;;;;14.37;12.97;;;25.20;42.50;;;;;;5991516;23;20467;-87
2022/03/28 09:15:46;;;;;;;17.47;13.77;;;25.40;42.00;;;;;;5998974;23;20926;-87
2022/03/28 09:18:24;;;;;;;15.03;13.50;;;25.70;41.50;;;;;;6015460;23;20799;-88
2022/03/28 09:20:56;;;;;;;15.30;13.70;;;25.80;40.70;;;;;;6019090;23;20841;-88
2022/03/28 09:23:38;;;;;;;15.33;12.47;;;25.80;40.40;;;;;;5997193;23;20963;-88
2022/03/28 09:26:12;;;;;;;14.93;13.30;;;26.00;40.60;;;;;;5997999;23;20496;-87
2022/03/28 09:28:48;;;;;;;14.50;13.03;;;26.60;39.90;;;;;;6004280;23;20785;-87
2022/03/28 09:31:21;;;;;;;14.77;13.27;;;26.80;39.10;;;;;;6001345;23;20460;-88
2022/03/28 09:33:59;;;;;;;14.20;12.70;;;27.00;39.40;;;;;;6000886;23;20437;-88
2022/03/28 09:36:46;;;;;;;14.10;12.80;;;27.30;38.90;;;;;;6004606;23;20872;-87
2022/03/28 09:39:16;;;;;;;14.43;13.00;;;27.60;38.10;;;;;;5980032;23;20933;-88
2022/03/28 09:41:45;;;;;;;15.43;12.83;;;27.80;37.10;;;;;;5983210;23;21035;-88
2022/03/28 09:44:12;;;;;;;14.80;13.17;;;27.80;37.20;;;;;;6002822;23;20548;-89
2022/03/28 09:46:39;;;;;;;15.30;13.40;;;28.00;37.30;;;;;;5998970;23;20554;-89
2022/03/28 09:49:08;;;;;;;13.93;12.60;;;28.10;36.90;;;;;;6002687;23;20488;-89
2022/03/28 09:51:36;;;;;;;13.63;12.33;;;28.50;37.00;;;;;;5999810;23;20995;-88
2022/03/28 09:54:18;;;;;;;13.30;12.00;;;29.00;36.10;;;;;;6001401;23;20437;-88
2022/03/28 09:57:05;;;;;;;12.00;10.80;;;29.20;35.50;;;;;;6002477;23;20460;-86
2022/03/28 09:59:37;;;;;;;14.60;13.00;;;29.50;36.00;;;;;;5997889;23;20433;-85
2022/03/28 10:02:15;;;;;;;13.20;11.80;;;29.50;35.80;;;;;;6002382;23;20472;-85
2022/03/28 10:04:45;;;;;;;13.50;12.10;;;29.30;35.20;;;;;;6001309;23;20868;-91
2022/03/28 10:07:13;;;;;;;13.93;12.63;;;28.90;35.00;;;;;;5998869;23;20468;-89
2022/03/28 10:09:41;;;;;;;14.27;13.03;;;28.90;35.30;;;;;;6002003;23;20654;-90
2022/03/28 10:12:08;;;;;;;14.10;12.53;;;28.90;35.30;;;;;;5998195;23;20962;-87
2022/03/28 10:14:35;;;;;;;14.00;12.80;;;29.00;34.80;;;;;;6001583;23;20483;-89
2022/03/28 10:17:04;;;;;;;16.33;12.83;;;29.30;34.10;;;;;;6002620;23;20544;-89
2022/03/28 10:19:32;;;;;;;15.07;12.87;;;29.40;34.10;;;;;;5999274;23;20445;-89
2022/03/28 10:22:04;;;;;;;12.90;11.63;;;29.10;33.80;;;;;;6002486;23;20437;-89
2022/03/28 10:24:34;;;;;;;13.27;12.00;;;29.10;33.90;;;;;;5999594;23;20548;-88
2022/03/28 10:27:05;;;;;;;14.27;12.77;;;29.10;33.50;;;;;;6001457;23;20441;-89
2022/03/28 10:29:37;;;;;;;14.30;12.90;;;29.10;33.30;;;;;;6005363;23;20436;-90
2022/03/28 10:32:08;;;;;;;13.63;12.33;;;29.00;33.60;;;;;;6002524;23;20437;-90
2022/03/28 10:34:47;;;;;;;13.20;11.80;;;29.00;33.30;;;;;;5997778;23;20455;-89
2022/03/28 10:37:29;;;;;;;13.93;12.53;;;29.10;33.10;;;;;;6002299;23;20441;-89
2022/03/28 10:40:19;;;;;;;13.13;11.80;;;29.30;33.30;;;;;;6000938;23;20453;-89
2022/03/28 10:42:51;;;;;;;14.50;12.97;;;29.70;32.50;;;;;;5997114;23;20457;-87
2022/03/28 10:45:20;;;;;;;14.30;12.50;;;29.80;33.10;;;;;;5999889;23;20500;-88
2022/03/28 10:47:50;;;;;;;14.17;12.73;;;30.00;32.80;;;;;;6003513;23;20443;-89
2022/03/28 10:50:21;;;;;;;14.80;13.30;;;30.10;32.30;;;;;;5995229;23;20457;-89
2022/03/28 10:53:05;;;;;;;17.10;14.03;;;29.90;32.70;;;;;;5988612;23;20485;-89
2022/03/28 10:55:37;;;;;;;15.50;13.80;;;29.50;32.60;;;;;;6005247;23;20445;-89
2022/03/28 10:58:17;;;;;;;16.33;14.63;;;29.30;33.10;;;;;;6005799;23;20484;-88
2022/03/28 11:01:22;;;;;;;17.10;13.70;;;29.70;33.30;;;;;;6003156;23;20473;-88
2022/03/28 11:03:54;;;;;;;18.40;14.67;;;30.20;33.50;;;;;;5999823;23;20452;-89
2022/03/28 11:06:41;;;;;;;15.23;13.63;;;30.80;32.60;;;;;;6001226;23;20464;-88
2022/03/28 11:09:09;;;;;;;16.97;13.50;;;31.30;31.90;;;;;;6006485;23;20444;-88
2022/03/28 11:11:36;;;;;;;16.27;14.67;;;31.70;31.60;;;;;;6005016;23;20464;-89
2022/03/28 11:14:06;;;;;;;15.80;14.23;;;31.90;31.60;;;;;;6005452;23;20461;-90
2022/03/28 11:16:41;;;;;;;13.60;12.40;;;31.70;31.10;;;;;;6000663;23;20448;-89
2022/03/28 11:19:22;;;;;;;17.03;14.60;;;31.80;31.80;;;;;;5993111;23;20939;-88
2022/03/28 11:22:00;;;;;;;16.47;14.80;;;32.10;31.30;;;;;;5989550;23;20520;-89
2022/03/28 11:24:45;;;;;;;15.97;13.40;;;32.30;31.70;;;;;;5989242;23;20547;-88
2022/03/28 11:27:13;;;;;;;17.90;16.30;;;32.60;31.30;;;;;;5998072;23;20451;-87
2022/03/28 11:29:42;;;;;;;16.50;14.90;;;32.50;31.00;;;;;;5999511;23;20465;-89
2022/03/28 11:32:10;;;;;;;18.17;16.33;;;32.30;31.20;;;;;;6000475;23;20512;-89
2022/03/28 11:34:37;;;;;;;16.47;14.87;;;31.70;31.50;;;;;;6002145;23;20512;-87
2022/03/28 11:37:05;;;;;;;15.63;14.13;;;31.40;31.60;;;;;;6025152;23;20436;-88
2022/03/28 11:39:53;;;;;;;17.73;15.57;;;31.30;32.20;;;;;;6015699;23;20979;-88
2022/03/28 11:42:22;;;;;;;16.03;14.40;;;30.40;32.40;;;;;;6004268;23;20445;-89
2022/03/28 11:44:50;;;;;;;16.07;14.33;;;30.30;33.20;;;;;;6001844;23;21030;-89
2022/03/28 11:47:18;;;;;;;15.87;14.03;;;30.50;33.00;;;;;;5996905;23;20441;-88
2022/03/28 11:49:57;;;;;;;15.90;14.40;;;30.50;32.90;;;;;;6000608;23;20453;-88
2022/03/28 11:52:26;;;;;;;16.00;14.50;;;30.40;33.20;;;;;;6004163;23;20495;-88
2022/03/28 11:54:53;;;;;;;16.43;14.83;;;30.30;33.20;;;;;;5991714;23;20492;-88
2022/03/28 12:00:17;;;;;;;15.07;13.57;;;30.70;33.00;;;;;;6010118;23;20885;-87
2022/03/28 12:02:51;;;;;;;17.40;15.20;;;31.00;32.80;;;;;;6016837;23;20455;-88
2022/03/28 12:05:26;;;;;;;15.27;13.77;;;31.10;32.60;;;;;;6001597;23;20567;-88
2022/03/28 12:07:53;;;;;;;16.30;14.63;;;30.90;32.90;;;;;;6003395;23;21061;-88
2022/03/28 12:10:24;;;;;;;17.13;15.53;;;30.90;32.90;;;;;;5999363;23;20487;-87
2022/03/28 12:12:52;;;;;;;15.00;13.50;;;30.60;33.10;;;;;;6003819;23;20790;-88
2022/03/28 12:15:28;;;;;;;16.40;14.17;;;30.40;33.50;;;;;;6005321;23;20480;-88
2022/03/28 12:17:57;;;;;;;14.80;13.23;;;30.40;33.50;;;;;;6005477;23;21284;-88
2022/03/28 12:20:29;;;;;;;13.37;12.17;;;30.40;32.60;;;;;;6002138;23;20473;-88
2022/03/28 12:22:56;;;;;;;15.40;13.30;;;30.40;32.80;;;;;;5996143;23;20437;-87
2022/03/28 12:25:29;;;;;;;13.30;11.90;;;30.20;32.70;;;;;;5989862;23;20539;-88
2022/03/28 12:27:57;;;;;;;14.03;12.63;;;30.30;32.40;;;;;;6004931;23;20496;-88
2022/03/28 12:30:29;;;;;;;13.37;12.10;;;30.40;32.80;;;;;;6007350;23;20465;-88
2022/03/28 12:32:57;;;;;;;15.37;12.93;;;30.50;32.10;;;;;;6002685;23;20452;-87
2022/03/28 12:35:24;;;;;;;13.03;11.73;;;30.20;32.40;;;;;;6000590;23;20449;-87
2022/03/28 12:38:01;;;;;;;13.73;12.40;;;29.90;32.50;;;;;;6003274;23;20491;-87
2022/03/28 12:40:29;;;;;;;13.73;12.33;;;29.90;33.00;;;;;;6004428;23;20468;-88
2022/03/28 12:42:57;;;;;;;12.93;11.73;;;29.90;33.10;;;;;;5997882;23;20557;-88
2022/03/28 12:45:29;;;;;;;13.00;11.63;;;30.00;32.70;;;;;;5994100;23;20865;-88